SAMR/AFA METAR and TAF weather

Enter ICAO airport designator
Station Type Date Time Source
SAMR METAR 2019/02/11 18:26 UTC NOAA

SAMR 111826Z 18003KT 8000 BR OVC015 12/09 Q1024


Station Type Date Time Source
SAMR Decoded METAR 2019/02/11 18:26 UTC NOAA

San Rafael Aerodrome, Argentina (SAMR) 34-35S 068-24W 748M
Feb 11, 2019 - 01:26 PM EST / 2019.02.11 1826 UTC
Wind: from the S (180 degrees) at 3 MPH (3 KT):0
Visibility: 4 mile(s):0
Sky conditions: overcast
Weather: mist
Temperature: 53 F (12 C)
Dew Point: 48 F (9 C)
Relative Humidity: 81%
Pressure (altimeter): 30.24 in. Hg (1024 hPa)
ob: SAMR 111826Z 18003KT 8000 BR OVC015 12/09 Q1024
cycle: 18

Station Type Date Time Source
SAMR TAF 2019/02/15 06:24 UTC NOAA

TAF SAMR 150500Z 1506/1606 29005KT CAVOK TN16/1510Z TX34/1520Z
BECMG 1514/1516 05010KT


Example: see airport list